Portada
METAR-TAF:

METAR-TAF

Aeroports :

Aeroport de Jiddah Rei Abdulaziz

Jiddah, Aràbia Saudita

latitud: 21-42N, longitud: 039-11E, altitud: 15 m

Observació

L'informe es va fer fa 1 hora i 5 minuts, a les 10:00 UTC
Vent 10 kt del Est/Nord-Est
Temperatura 33°C
Humitat 24%
Pressió 1009 hPa
Visibilitat 10 km o més
sense núvols per sota de 1500 mi sense presència de cumulonimbus.

METAR: OEJN 211000Z 06010KT CAVOK 33/10 Q1009 NOSIG

Hora: 14:05 (11:05 UTC)

Pronòstic

L'informe es va fer fa 6 hores i 5 minuts, a les 05:00 UTC
Pronòstic vàlid del 21 a les 06 UTC al 22 a les 12 UTC
Vent 8 kt del Est amb ràfegues de 18 kt
Visibilitat: 6000 m
Escasses núvols a una alçada de 4000 ft
Evolucionant progressivament
l' 21 a les 12 UTC al 21 a les 14 UTC
Vent 10 kt del Nord/Nord-Oest
Evolucionant progressivament
l' 21 a les 18 UTC al 21 a les 20 UTC
Vent 3 kt amb direcció variable

TAF: OEJN 210500Z 2106/2212 08008G18KT 6000 FEW040 BECMG 2112/2114 34010KT BECMG 2118/2120 VRB03KT

Observacions i pronòstics meteorològics de més de 4000 aeroports (METAR i TAF).

Les estacions disponibles són els punts grocs i vermells al mapa.

Posi el ratolí al punt desitjat per veure el nom de l'estació.

Feu clic per veure les observacions i els pronòstics meteorològics.

Per canviar el mapa: feu clic els botons verds amb una creu de color negre per apropar; al botó verd amb un guió per allunyar la imatge; o en les fletxes verdes per a mapes adjacents.


METAR-TAF: